sensor_id;sensor_type;location;lat;lon;timestamp;P1;durP1;ratioP1;P2;durP2;ratioP2
6292;SDS011;3179;54.350;10.102;2022-10-23T00:01:12;12.37;;;3.40;;
6292;SDS011;3179;54.350;10.102;2022-10-23T00:03:40;12.00;;;3.60;;
6292;SDS011;3179;54.350;10.102;2022-10-23T00:06:09;7.30;;;4.07;;
6292;SDS011;3179;54.350;10.102;2022-10-23T00:08:36;9.40;;;3.73;;
6292;SDS011;3179;54.350;10.102;2022-10-23T00:11:04;8.73;;;3.70;;
6292;SDS011;3179;54.350;10.102;2022-10-23T00:13:32;9.60;;;3.87;;
6292;SDS011;3179;54.350;10.102;2022-10-23T00:15:59;7.70;;;4.20;;
6292;SDS011;3179;54.350;10.102;2022-10-23T00:18:26;7.70;;;3.90;;
6292;SDS011;3179;54.350;10.102;2022-10-23T00:20:53;9.97;;;3.90;;
6292;SDS011;3179;54.350;10.102;2022-10-23T00:23:21;8.00;;;4.10;;
6292;SDS011;3179;54.350;10.102;2022-10-23T00:25:49;11.33;;;4.60;;
6292;SDS011;3179;54.350;10.102;2022-10-23T00:28:16;11.17;;;4.67;;
6292;SDS011;3179;54.350;10.102;2022-10-23T00:30:43;10.33;;;4.70;;
6292;SDS011;3179;54.350;10.102;2022-10-23T00:33:10;7.10;;;4.00;;
6292;SDS011;3179;54.350;10.102;2022-10-23T00:35:37;5.17;;;3.90;;
6292;SDS011;3179;54.350;10.102;2022-10-23T00:38:04;7.87;;;5.23;;
6292;SDS011;3179;54.350;10.102;2022-10-23T00:40:32;11.90;;;5.13;;
6292;SDS011;3179;54.350;10.102;2022-10-23T00:43:00;13.40;;;4.97;;
6292;SDS011;3179;54.350;10.102;2022-10-23T00:45:27;9.40;;;5.13;;
6292;SDS011;3179;54.350;10.102;2022-10-23T00:47:57;14.53;;;5.83;;
6292;SDS011;3179;54.350;10.102;2022-10-23T00:50:25;11.83;;;4.87;;
6292;SDS011;3179;54.350;10.102;2022-10-23T00:52:54;9.30;;;4.90;;
6292;SDS011;3179;54.350;10.102;2022-10-23T00:55:22;13.53;;;5.47;;
6292;SDS011;3179;54.350;10.102;2022-10-23T00:57:52;8.57;;;4.50;;
6292;SDS011;3179;54.350;10.102;2022-10-23T01:00:20;13.97;;;5.97;;
6292;SDS011;3179;54.350;10.102;2022-10-23T01:02:49;8.90;;;5.80;;
6292;SDS011;3179;54.350;10.102;2022-10-23T01:05:17;16.00;;;5.70;;
6292;SDS011;3179;54.350;10.102;2022-10-23T01:07:49;13.20;;;5.43;;
6292;SDS011;3179;54.350;10.102;2022-10-23T01:10:22;9.67;;;4.90;;
6292;SDS011;3179;54.350;10.102;2022-10-23T01:12:59;8.70;;;5.83;;
6292;SDS011;3179;54.350;10.102;2022-10-23T01:15:32;11.10;;;5.60;;
6292;SDS011;3179;54.350;10.102;2022-10-23T01:18:09;12.30;;;5.47;;
6292;SDS011;3179;54.350;10.102;2022-10-23T01:20:42;11.87;;;5.90;;
6292;SDS011;3179;54.350;10.102;2022-10-23T01:26:18;10.23;;;5.60;;
6292;SDS011;3179;54.350;10.102;2022-10-23T01:28:57;15.63;;;5.40;;
6292;SDS011;3179;54.350;10.102;2022-10-23T01:34:50;12.13;;;5.07;;
6292;SDS011;3179;54.350;10.102;2022-10-23T01:37:25;16.80;;;4.93;;
6292;SDS011;3179;54.350;10.102;2022-10-23T01:39:55;10.87;;;5.40;;
6292;SDS011;3179;54.350;10.102;2022-10-23T01:42:28;11.30;;;4.97;;
6292;SDS011;3179;54.350;10.102;2022-10-23T01:45:02;10.50;;;5.40;;
6292;SDS011;3179;54.350;10.102;2022-10-23T01:47:34;13.03;;;5.70;;
6292;SDS011;3179;54.350;10.102;2022-10-23T01:50:03;8.73;;;5.23;;
6292;SDS011;3179;54.350;10.102;2022-10-23T01:52:33;9.60;;;5.57;;
6292;SDS011;3179;54.350;10.102;2022-10-23T01:55:00;13.27;;;5.27;;
6292;SDS011;3179;54.350;10.102;2022-10-23T01:57:28;10.77;;;5.00;;
6292;SDS011;3179;54.350;10.102;2022-10-23T01:59:57;7.70;;;5.00;;
6292;SDS011;3179;54.350;10.102;2022-10-23T02:02:28;15.20;;;5.80;;
6292;SDS011;3179;54.350;10.102;2022-10-23T02:04:58;13.50;;;4.83;;
6292;SDS011;3179;54.350;10.102;2022-10-23T02:07:28;9.90;;;5.30;;
6292;SDS011;3179;54.350;10.102;2022-10-23T02:09:56;9.50;;;4.63;;
6292;SDS011;3179;54.350;10.102;2022-10-23T02:12:25;13.37;;;5.03;;
6292;SDS011;3179;54.350;10.102;2022-10-23T02:14:57;10.83;;;4.90;;
6292;SDS011;3179;54.350;10.102;2022-10-23T02:17:30;8.33;;;4.80;;
6292;SDS011;3179;54.350;10.102;2022-10-23T02:20:11;8.30;;;4.77;;
6292;SDS011;3179;54.350;10.102;2022-10-23T02:22:46;7.90;;;5.10;;
6292;SDS011;3179;54.350;10.102;2022-10-23T02:25:20;9.30;;;4.97;;
6292;SDS011;3179;54.350;10.102;2022-10-23T02:27:52;6.87;;;4.90;;
6292;SDS011;3179;54.350;10.102;2022-10-23T02:30:21;10.73;;;4.73;;
6292;SDS011;3179;54.350;10.102;2022-10-23T02:32:50;11.33;;;4.77;;
6292;SDS011;3179;54.350;10.102;2022-10-23T02:35:20;8.33;;;4.87;;
6292;SDS011;3179;54.350;10.102;2022-10-23T02:37:54;7.77;;;5.37;;
6292;SDS011;3179;54.350;10.102;2022-10-23T02:40:22;8.40;;;4.80;;
6292;SDS011;3179;54.350;10.102;2022-10-23T02:42:54;8.10;;;4.67;;
6292;SDS011;3179;54.350;10.102;2022-10-23T02:45:24;9.33;;;4.50;;
6292;SDS011;3179;54.350;10.102;2022-10-23T02:47:58;10.13;;;4.93;;
6292;SDS011;3179;54.350;10.102;2022-10-23T02:50:32;8.10;;;5.10;;
6292;SDS011;3179;54.350;10.102;2022-10-23T02:53:05;7.70;;;4.20;;
6292;SDS011;3179;54.350;10.102;2022-10-23T02:55:41;7.20;;;4.13;;
6292;SDS011;3179;54.350;10.102;2022-10-23T02:58:15;9.70;;;4.80;;
6292;SDS011;3179;54.350;10.102;2022-10-23T03:00:49;9.00;;;4.97;;
6292;SDS011;3179;54.350;10.102;2022-10-23T03:03:22;8.83;;;5.33;;
6292;SDS011;3179;54.350;10.102;2022-10-23T03:05:52;14.40;;;5.53;;
6292;SDS011;3179;54.350;10.102;2022-10-23T03:08:19;8.10;;;4.77;;
6292;SDS011;3179;54.350;10.102;2022-10-23T03:10:46;8.27;;;4.70;;
6292;SDS011;3179;54.350;10.102;2022-10-23T03:13:13;8.87;;;5.07;;
6292;SDS011;3179;54.350;10.102;2022-10-23T03:15:40;8.03;;;4.57;;
6292;SDS011;3179;54.350;10.102;2022-10-23T03:18:06;8.70;;;4.90;;
6292;SDS011;3179;54.350;10.102;2022-10-23T03:20:34;8.33;;;5.00;;
6292;SDS011;3179;54.350;10.102;2022-10-23T03:23:01;9.70;;;4.93;;
6292;SDS011;3179;54.350;10.102;2022-10-23T03:25:28;9.33;;;4.70;;
6292;SDS011;3179;54.350;10.102;2022-10-23T03:27:55;10.70;;;5.20;;
6292;SDS011;3179;54.350;10.102;2022-10-23T03:30:21;16.90;;;5.27;;
6292;SDS011;3179;54.350;10.102;2022-10-23T03:32:48;8.50;;;5.60;;
6292;SDS011;3179;54.350;10.102;2022-10-23T03:35:15;8.33;;;5.40;;
6292;SDS011;3179;54.350;10.102;2022-10-23T03:37:43;5.80;;;5.13;;
6292;SDS011;3179;54.350;10.102;2022-10-23T03:40:10;6.43;;;5.70;;
6292;SDS011;3179;54.350;10.102;2022-10-23T03:42:37;6.57;;;5.90;;
6292;SDS011;3179;54.350;10.102;2022-10-23T03:45:04;6.20;;;5.30;;
6292;SDS011;3179;54.350;10.102;2022-10-23T03:47:31;6.17;;;5.27;;
6292;SDS011;3179;54.350;10.102;2022-10-23T03:49:59;5.67;;;5.13;;
6292;SDS011;3179;54.350;10.102;2022-10-23T03:52:26;5.90;;;5.30;;
6292;SDS011;3179;54.350;10.102;2022-10-23T03:54:54;5.40;;;4.80;;
6292;SDS011;3179;54.350;10.102;2022-10-23T03:57:21;6.07;;;5.57;;
6292;SDS011;3179;54.350;10.102;2022-10-23T03:59:48;7.50;;;4.90;;
6292;SDS011;3179;54.350;10.102;2022-10-23T04:02:15;6.60;;;6.00;;
6292;SDS011;3179;54.350;10.102;2022-10-23T04:04:42;6.80;;;5.80;;
6292;SDS011;3179;54.350;10.102;2022-10-23T04:07:08;11.33;;;6.00;;
6292;SDS011;3179;54.350;10.102;2022-10-23T04:09:35;6.13;;;5.50;;
6292;SDS011;3179;54.350;10.102;2022-10-23T04:12:04;5.83;;;5.20;;
6292;SDS011;3179;54.350;10.102;2022-10-23T04:14:31;6.07;;;5.47;;
6292;SDS011;3179;54.350;10.102;2022-10-23T04:16:58;6.63;;;5.10;;
6292;SDS011;3179;54.350;10.102;2022-10-23T04:19:25;6.27;;;5.20;;
6292;SDS011;3179;54.350;10.102;2022-10-23T04:21:52;5.83;;;5.30;;
6292;SDS011;3179;54.350;10.102;2022-10-23T04:24:18;6.07;;;5.57;;
6292;SDS011;3179;54.350;10.102;2022-10-23T04:26:45;8.10;;;5.97;;
6292;SDS011;3179;54.350;10.102;2022-10-23T04:29:13;6.97;;;5.80;;
6292;SDS011;3179;54.350;10.102;2022-10-23T04:31:40;5.33;;;4.83;;
6292;SDS011;3179;54.350;10.102;2022-10-23T04:34:07;6.07;;;5.47;;
6292;SDS011;3179;54.350;10.102;2022-10-23T04:36:33;6.10;;;5.13;;
6292;SDS011;3179;54.350;10.102;2022-10-23T04:39:00;6.77;;;5.60;;
6292;SDS011;3179;54.350;10.102;2022-10-23T04:41:27;5.80;;;5.30;;
6292;SDS011;3179;54.350;10.102;2022-10-23T04:43:54;5.50;;;5.00;;
6292;SDS011;3179;54.350;10.102;2022-10-23T04:46:22;5.33;;;4.90;;
6292;SDS011;3179;54.350;10.102;2022-10-23T04:48:48;5.00;;;4.60;;
6292;SDS011;3179;54.350;10.102;2022-10-23T04:51:15;6.13;;;4.90;;
6292;SDS011;3179;54.350;10.102;2022-10-23T04:53:42;6.37;;;4.73;;
6292;SDS011;3179;54.350;10.102;2022-10-23T04:56:10;6.90;;;5.43;;
6292;SDS011;3179;54.350;10.102;2022-10-23T04:58:39;6.03;;;4.80;;
6292;SDS011;3179;54.350;10.102;2022-10-23T05:01:06;5.90;;;5.40;;
6292;SDS011;3179;54.350;10.102;2022-10-23T05:03:36;6.20;;;5.60;;
6292;SDS011;3179;54.350;10.102;2022-10-23T05:06:03;6.50;;;5.40;;
6292;SDS011;3179;54.350;10.102;2022-10-23T05:08:31;7.23;;;5.97;;
6292;SDS011;3179;54.350;10.102;2022-10-23T05:10:59;5.93;;;5.37;;
6292;SDS011;3179;54.350;10.102;2022-10-23T05:13:26;6.80;;;6.07;;
6292;SDS011;3179;54.350;10.102;2022-10-23T05:15:53;5.70;;;5.00;;
6292;SDS011;3179;54.350;10.102;2022-10-23T05:18:20;7.27;;;6.23;;
6292;SDS011;3179;54.350;10.102;2022-10-23T05:20:52;7.63;;;6.40;;
6292;SDS011;3179;54.350;10.102;2022-10-23T05:23:24;6.90;;;6.30;;
6292;SDS011;3179;54.350;10.102;2022-10-23T05:25:53;7.00;;;6.30;;
6292;SDS011;3179;54.350;10.102;2022-10-23T05:28:19;7.17;;;6.50;;
6292;SDS011;3179;54.350;10.102;2022-10-23T05:30:46;8.50;;;7.60;;
6292;SDS011;3179;54.350;10.102;2022-10-23T05:33:13;7.43;;;6.27;;
6292;SDS011;3179;54.350;10.102;2022-10-23T05:35:40;6.97;;;6.37;;
6292;SDS011;3179;54.350;10.102;2022-10-23T05:38:10;6.53;;;5.93;;
6292;SDS011;3179;54.350;10.102;2022-10-23T05:40:38;7.67;;;6.20;;
6292;SDS011;3179;54.350;10.102;2022-10-23T05:43:05;9.80;;;8.00;;
6292;SDS011;3179;54.350;10.102;2022-10-23T05:45:31;8.70;;;6.87;;
6292;SDS011;3179;54.350;10.102;2022-10-23T05:47:58;6.50;;;5.90;;
6292;SDS011;3179;54.350;10.102;2022-10-23T05:50:25;6.97;;;6.17;;
6292;SDS011;3179;54.350;10.102;2022-10-23T05:52:52;7.37;;;6.67;;
6292;SDS011;3179;54.350;10.102;2022-10-23T05:55:20;6.17;;;5.67;;
6292;SDS011;3179;54.350;10.102;2022-10-23T05:57:46;7.40;;;6.70;;
6292;SDS011;3179;54.350;10.102;2022-10-23T06:00:13;8.30;;;6.40;;
6292;SDS011;3179;54.350;10.102;2022-10-23T06:02:40;5.93;;;5.43;;
6292;SDS011;3179;54.350;10.102;2022-10-23T06:05:07;6.87;;;6.17;;
6292;SDS011;3179;54.350;10.102;2022-10-23T06:07:34;6.53;;;5.97;;
6292;SDS011;3179;54.350;10.102;2022-10-23T06:10:01;7.30;;;6.60;;
6292;SDS011;3179;54.350;10.102;2022-10-23T06:12:30;6.13;;;5.53;;
6292;SDS011;3179;54.350;10.102;2022-10-23T06:14:57;6.00;;;5.50;;
6292;SDS011;3179;54.350;10.102;2022-10-23T06:17:24;6.33;;;5.73;;
6292;SDS011;3179;54.350;10.102;2022-10-23T06:19:50;5.57;;;5.07;;
6292;SDS011;3179;54.350;10.102;2022-10-23T06:22:17;6.50;;;5.90;;
6292;SDS011;3179;54.350;10.102;2022-10-23T06:24:44;6.90;;;5.30;;
6292;SDS011;3179;54.350;10.102;2022-10-23T06:27:11;5.87;;;5.27;;
6292;SDS011;3179;54.350;10.102;2022-10-23T06:29:39;5.30;;;4.80;;
6292;SDS011;3179;54.350;10.102;2022-10-23T06:32:06;7.00;;;6.00;;
6292;SDS011;3179;54.350;10.102;2022-10-23T06:34:33;6.87;;;6.27;;
6292;SDS011;3179;54.350;10.102;2022-10-23T06:37:00;6.87;;;6.07;;
6292;SDS011;3179;54.350;10.102;2022-10-23T06:39:27;7.10;;;6.50;;
6292;SDS011;3179;54.350;10.102;2022-10-23T06:41:53;5.90;;;5.40;;
6292;SDS011;3179;54.350;10.102;2022-10-23T06:44:20;6.60;;;5.97;;
6292;SDS011;3179;54.350;10.102;2022-10-23T06:46:48;6.63;;;6.03;;
6292;SDS011;3179;54.350;10.102;2022-10-23T06:49:15;6.13;;;5.40;;
6292;SDS011;3179;54.350;10.102;2022-10-23T06:51:42;6.00;;;5.40;;
6292;SDS011;3179;54.350;10.102;2022-10-23T06:54:09;6.13;;;5.20;;
6292;SDS011;3179;54.350;10.102;2022-10-23T06:56:36;6.10;;;5.50;;
6292;SDS011;3179;54.350;10.102;2022-10-23T06:59:03;5.87;;;5.20;;
6292;SDS011;3179;54.350;10.102;2022-10-23T07:01:31;5.73;;;5.13;;
6292;SDS011;3179;54.350;10.102;2022-10-23T07:03:59;5.77;;;5.23;;
6292;SDS011;3179;54.350;10.102;2022-10-23T07:06:26;6.00;;;5.40;;
6292;SDS011;3179;54.350;10.102;2022-10-23T07:08:53;7.10;;;5.87;;
6292;SDS011;3179;54.350;10.102;2022-10-23T07:11:20;5.90;;;5.30;;
6292;SDS011;3179;54.350;10.102;2022-10-23T07:13:47;5.90;;;5.40;;
6292;SDS011;3179;54.350;10.102;2022-10-23T07:16:14;6.83;;;6.23;;
6292;SDS011;3179;54.350;10.102;2022-10-23T07:18:43;5.67;;;5.17;;
6292;SDS011;3179;54.350;10.102;2022-10-23T07:21:12;6.93;;;6.23;;
6292;SDS011;3179;54.350;10.102;2022-10-23T07:23:39;6.53;;;5.93;;
6292;SDS011;3179;54.350;10.102;2022-10-23T07:26:07;6.03;;;5.47;;
6292;SDS011;3179;54.350;10.102;2022-10-23T07:28:34;7.00;;;5.73;;
6292;SDS011;3179;54.350;10.102;2022-10-23T07:31:01;8.13;;;5.80;;
6292;SDS011;3179;54.350;10.102;2022-10-23T07:33:28;6.93;;;6.23;;
6292;SDS011;3179;54.350;10.102;2022-10-23T07:35:55;5.77;;;5.27;;
6292;SDS011;3179;54.350;10.102;2022-10-23T07:38:23;6.90;;;6.20;;
6292;SDS011;3179;54.350;10.102;2022-10-23T07:40:51;6.43;;;5.80;;
6292;SDS011;3179;54.350;10.102;2022-10-23T07:43:18;6.73;;;6.10;;
6292;SDS011;3179;54.350;10.102;2022-10-23T07:45:46;6.93;;;6.23;;
6292;SDS011;3179;54.350;10.102;2022-10-23T07:48:13;6.27;;;5.67;;
6292;SDS011;3179;54.350;10.102;2022-10-23T07:50:40;6.53;;;5.73;;
6292;SDS011;3179;54.350;10.102;2022-10-23T07:53:08;7.27;;;6.50;;
6292;SDS011;3179;54.350;10.102;2022-10-23T07:55:41;9.40;;;6.50;;
6292;SDS011;3179;54.350;10.102;2022-10-23T07:58:07;7.50;;;6.40;;
6292;SDS011;3179;54.350;10.102;2022-10-23T08:00:34;7.60;;;6.60;;
6292;SDS011;3179;54.350;10.102;2022-10-23T08:03:03;7.33;;;6.00;;
6292;SDS011;3179;54.350;10.102;2022-10-23T08:05:30;6.90;;;6.00;;
6292;SDS011;3179;54.350;10.102;2022-10-23T08:07:57;8.60;;;7.13;;
6292;SDS011;3179;54.350;10.102;2022-10-23T08:10:24;7.27;;;6.50;;
6292;SDS011;3179;54.350;10.102;2022-10-23T08:12:52;11.53;;;7.43;;
6292;SDS011;3179;54.350;10.102;2022-10-23T08:15:18;7.57;;;6.70;;
6292;SDS011;3179;54.350;10.102;2022-10-23T08:17:45;8.13;;;7.30;;
6292;SDS011;3179;54.350;10.102;2022-10-23T08:20:12;6.70;;;6.10;;
6292;SDS011;3179;54.350;10.102;2022-10-23T08:22:42;7.83;;;6.63;;
6292;SDS011;3179;54.350;10.102;2022-10-23T08:25:10;7.90;;;6.37;;
6292;SDS011;3179;54.350;10.102;2022-10-23T08:27:46;7.17;;;6.47;;
6292;SDS011;3179;54.350;10.102;2022-10-23T08:30:15;8.60;;;7.10;;
6292;SDS011;3179;54.350;10.102;2022-10-23T08:32:42;7.37;;;5.97;;
6292;SDS011;3179;54.350;10.102;2022-10-23T08:35:09;8.00;;;6.90;;
6292;SDS011;3179;54.350;10.102;2022-10-23T08:37:36;6.43;;;5.83;;
6292;SDS011;3179;54.350;10.102;2022-10-23T08:40:02;6.93;;;5.97;;
6292;SDS011;3179;54.350;10.102;2022-10-23T08:42:30;8.33;;;7.47;;
6292;SDS011;3179;54.350;10.102;2022-10-23T08:45:03;8.70;;;6.73;;
6292;SDS011;3179;54.350;10.102;2022-10-23T08:47:34;6.70;;;6.00;;
6292;SDS011;3179;54.350;10.102;2022-10-23T08:50:05;6.83;;;5.70;;
6292;SDS011;3179;54.350;10.102;2022-10-23T08:52:38;8.30;;;6.87;;
6292;SDS011;3179;54.350;10.102;2022-10-23T08:55:13;7.53;;;6.20;;
6292;SDS011;3179;54.350;10.102;2022-10-23T08:57:44;8.73;;;6.80;;
6292;SDS011;3179;54.350;10.102;2022-10-23T09:00:16;8.77;;;7.10;;
6292;SDS011;3179;54.350;10.102;2022-10-23T09:02:46;7.63;;;6.13;;
6292;SDS011;3179;54.350;10.102;2022-10-23T09:05:16;9.40;;;6.40;;
6292;SDS011;3179;54.350;10.102;2022-10-23T09:07:57;8.53;;;6.33;;
6292;SDS011;3179;54.350;10.102;2022-10-23T09:10:50;8.87;;;7.20;;
6292;SDS011;3179;54.350;10.102;2022-10-23T09:16:39;7.70;;;6.83;;
6292;SDS011;3179;54.350;10.102;2022-10-23T09:19:16;7.33;;;6.47;;
6292;SDS011;3179;54.350;10.102;2022-10-23T09:25:07;8.30;;;7.17;;
6292;SDS011;3179;54.350;10.102;2022-10-23T09:27:35;9.40;;;7.60;;
6292;SDS011;3179;54.350;10.102;2022-10-23T09:30:03;10.00;;;7.67;;
6292;SDS011;3179;54.350;10.102;2022-10-23T09:32:31;10.70;;;9.60;;
6292;SDS011;3179;54.350;10.102;2022-10-23T09:35:01;10.57;;;8.37;;
6292;SDS011;3179;54.350;10.102;2022-10-23T09:37:29;9.57;;;7.20;;
6292;SDS011;3179;54.350;10.102;2022-10-23T09:40:11;12.93;;;8.17;;
6292;SDS011;3179;54.350;10.102;2022-10-23T09:42:53;11.47;;;8.90;;
6292;SDS011;3179;54.350;10.102;2022-10-23T09:45:26;11.77;;;8.63;;
6292;SDS011;3179;54.350;10.102;2022-10-23T09:48:09;10.20;;;8.20;;
6292;SDS011;3179;54.350;10.102;2022-10-23T09:50:44;11.67;;;9.70;;
6292;SDS011;3179;54.350;10.102;2022-10-23T09:53:14;10.83;;;8.63;;
6292;SDS011;3179;54.350;10.102;2022-10-23T09:55:55;11.30;;;8.33;;
6292;SDS011;3179;54.350;10.102;2022-10-23T09:58:28;12.23;;;9.80;;
6292;SDS011;3179;54.350;10.102;2022-10-23T10:00:57;13.80;;;10.37;;
6292;SDS011;3179;54.350;10.102;2022-10-23T10:03:24;10.40;;;8.90;;
6292;SDS011;3179;54.350;10.102;2022-10-23T10:05:57;14.20;;;10.47;;
6292;SDS011;3179;54.350;10.102;2022-10-23T10:08:31;11.87;;;10.17;;
6292;SDS011;3179;54.350;10.102;2022-10-23T10:11:09;11.37;;;10.03;;
6292;SDS011;3179;54.350;10.102;2022-10-23T10:16:47;12.47;;;10.47;;
6292;SDS011;3179;54.350;10.102;2022-10-23T10:19:22;15.63;;;11.17;;
6292;SDS011;3179;54.350;10.102;2022-10-23T10:22:04;16.37;;;11.60;;
6292;SDS011;3179;54.350;10.102;2022-10-23T10:24:44;18.70;;;12.10;;
6292;SDS011;3179;54.350;10.102;2022-10-23T10:27:18;14.93;;;11.87;;
6292;SDS011;3179;54.350;10.102;2022-10-23T10:29:59;19.70;;;11.80;;
6292;SDS011;3179;54.350;10.102;2022-10-23T10:32:34;19.30;;;12.07;;
6292;SDS011;3179;54.350;10.102;2022-10-23T10:38:12;21.40;;;13.73;;
6292;SDS011;3179;54.350;10.102;2022-10-23T10:40:53;14.80;;;12.00;;
6292;SDS011;3179;54.350;10.102;2022-10-23T10:43:42;16.10;;;11.97;;
6292;SDS011;3179;54.350;10.102;2022-10-23T10:46:19;21.70;;;12.70;;
6292;SDS011;3179;54.350;10.102;2022-10-23T10:48:54;15.10;;;11.57;;
6292;SDS011;3179;54.350;10.102;2022-10-23T10:51:26;14.43;;;12.20;;
6292;SDS011;3179;54.350;10.102;2022-10-23T10:54:09;18.23;;;11.80;;
6292;SDS011;3179;54.350;10.102;2022-10-23T10:56:47;18.63;;;13.27;;
6292;SDS011;3179;54.350;10.102;2022-10-23T10:59:15;20.93;;;14.40;;
6292;SDS011;3179;54.350;10.102;2022-10-23T11:01:48;20.27;;;12.43;;
6292;SDS011;3179;54.350;10.102;2022-10-23T11:04:21;17.60;;;13.43;;
6292;SDS011;3179;54.350;10.102;2022-10-23T11:06:56;18.50;;;12.87;;
6292;SDS011;3179;54.350;10.102;2022-10-23T11:09:26;14.50;;;11.10;;
6292;SDS011;3179;54.350;10.102;2022-10-23T11:11:54;20.20;;;12.53;;
6292;SDS011;3179;54.350;10.102;2022-10-23T11:14:21;21.87;;;13.27;;
6292;SDS011;3179;54.350;10.102;2022-10-23T11:16:50;18.77;;;12.47;;
6292;SDS011;3179;54.350;10.102;2022-10-23T11:19:19;20.20;;;12.67;;
6292;SDS011;3179;54.350;10.102;2022-10-23T11:21:52;14.17;;;11.03;;
6292;SDS011;3179;54.350;10.102;2022-10-23T11:27:19;14.33;;;11.57;;
6292;SDS011;3179;54.350;10.102;2022-10-23T11:30:18;19.10;;;12.87;;
6292;SDS011;3179;54.350;10.102;2022-10-23T11:35:57;19.43;;;12.87;;
6292;SDS011;3179;54.350;10.102;2022-10-23T11:38:32;19.07;;;12.77;;
6292;SDS011;3179;54.350;10.102;2022-10-23T11:41:02;18.33;;;11.77;;
6292;SDS011;3179;54.350;10.102;2022-10-23T11:43:33;16.17;;;10.13;;
6292;SDS011;3179;54.350;10.102;2022-10-23T11:46:12;16.10;;;10.23;;
6292;SDS011;3179;54.350;10.102;2022-10-23T11:48:40;14.23;;;10.90;;
6292;SDS011;3179;54.350;10.102;2022-10-23T11:51:24;16.70;;;11.27;;
6292;SDS011;3179;54.350;10.102;2022-10-23T11:54:03;13.27;;;10.23;;
6292;SDS011;3179;54.350;10.102;2022-10-23T11:56:54;15.23;;;10.33;;
6292;SDS011;3179;54.350;10.102;2022-10-23T11:59:31;19.43;;;10.00;;
6292;SDS011;3179;54.350;10.102;2022-10-23T12:01:59;20.13;;;10.77;;
6292;SDS011;3179;54.350;10.102;2022-10-23T12:04:29;14.93;;;11.30;;
6292;SDS011;3179;54.350;10.102;2022-10-23T12:07:12;14.30;;;10.70;;
6292;SDS011;3179;54.350;10.102;2022-10-23T12:09:43;17.10;;;11.40;;
6292;SDS011;3179;54.350;10.102;2022-10-23T12:12:25;15.53;;;11.40;;
6292;SDS011;3179;54.350;10.102;2022-10-23T12:15:05;17.70;;;11.20;;
6292;SDS011;3179;54.350;10.102;2022-10-23T12:17:42;15.60;;;10.87;;
6292;SDS011;3179;54.350;10.102;2022-10-23T12:20:27;16.20;;;11.13;;
6292;SDS011;3179;54.350;10.102;2022-10-23T12:23:05;15.23;;;10.30;;
6292;SDS011;3179;54.350;10.102;2022-10-23T12:25:55;11.00;;;9.40;;
6292;SDS011;3179;54.350;10.102;2022-10-23T12:28:42;15.50;;;9.60;;
6292;SDS011;3179;54.350;10.102;2022-10-23T12:31:22;9.97;;;8.30;;
6292;SDS011;3179;54.350;10.102;2022-10-23T12:33:57;13.47;;;8.50;;
6292;SDS011;3179;54.350;10.102;2022-10-23T12:36:37;14.23;;;9.73;;
6292;SDS011;3179;54.350;10.102;2022-10-23T12:39:26;10.40;;;8.70;;
6292;SDS011;3179;54.350;10.102;2022-10-23T12:41:54;10.13;;;7.03;;
6292;SDS011;3179;54.350;10.102;2022-10-23T12:44:22;11.03;;;7.90;;
6292;SDS011;3179;54.350;10.102;2022-10-23T12:46:52;11.03;;;7.50;;
6292;SDS011;3179;54.350;10.102;2022-10-23T12:49:21;12.33;;;7.30;;
6292;SDS011;3179;54.350;10.102;2022-10-23T12:51:53;13.13;;;7.80;;
6292;SDS011;3179;54.350;10.102;2022-10-23T12:54:21;9.97;;;7.33;;
6292;SDS011;3179;54.350;10.102;2022-10-23T12:56:48;14.80;;;8.83;;
6292;SDS011;3179;54.350;10.102;2022-10-23T12:59:15;10.20;;;7.10;;
6292;SDS011;3179;54.350;10.102;2022-10-23T13:01:45;12.47;;;7.87;;
6292;SDS011;3179;54.350;10.102;2022-10-23T13:04:14;11.37;;;7.30;;
6292;SDS011;3179;54.350;10.102;2022-10-23T13:06:50;9.90;;;6.20;;
6292;SDS011;3179;54.350;10.102;2022-10-23T13:09:20;9.13;;;6.63;;
6292;SDS011;3179;54.350;10.102;2022-10-23T13:11:51;10.93;;;6.20;;
6292;SDS011;3179;54.350;10.102;2022-10-23T13:14:28;9.43;;;6.10;;
6292;SDS011;3179;54.350;10.102;2022-10-23T13:17:00;14.60;;;6.33;;
6292;SDS011;3179;54.350;10.102;2022-10-23T13:19:28;8.57;;;5.77;;
6292;SDS011;3179;54.350;10.102;2022-10-23T13:21:55;11.20;;;6.17;;
6292;SDS011;3179;54.350;10.102;2022-10-23T13:24:22;9.80;;;5.70;;
6292;SDS011;3179;54.350;10.102;2022-10-23T13:26:51;13.33;;;5.80;;
6292;SDS011;3179;54.350;10.102;2022-10-23T13:29:19;10.03;;;5.50;;
6292;SDS011;3179;54.350;10.102;2022-10-23T13:31:48;13.90;;;5.97;;
6292;SDS011;3179;54.350;10.102;2022-10-23T13:34:23;11.60;;;5.30;;
6292;SDS011;3179;54.350;10.102;2022-10-23T13:36:52;7.43;;;5.50;;
6292;SDS011;3179;54.350;10.102;2022-10-23T13:39:25;6.53;;;5.40;;
6292;SDS011;3179;54.350;10.102;2022-10-23T13:41:54;9.60;;;4.57;;
6292;SDS011;3179;54.350;10.102;2022-10-23T13:44:22;12.10;;;5.77;;
6292;SDS011;3179;54.350;10.102;2022-10-23T13:46:50;10.83;;;5.17;;
6292;SDS011;3179;54.350;10.102;2022-10-23T13:49:17;10.10;;;4.47;;
6292;SDS011;3179;54.350;10.102;2022-10-23T13:51:48;17.13;;;5.70;;
6292;SDS011;3179;54.350;10.102;2022-10-23T13:54:17;6.17;;;4.50;;
6292;SDS011;3179;54.350;10.102;2022-10-23T13:56:45;8.10;;;4.50;;
6292;SDS011;3179;54.350;10.102;2022-10-23T13:59:12;6.70;;;4.90;;
6292;SDS011;3179;54.350;10.102;2022-10-23T14:01:40;7.20;;;4.83;;
6292;SDS011;3179;54.350;10.102;2022-10-23T14:04:08;13.20;;;4.77;;
6292;SDS011;3179;54.350;10.102;2022-10-23T14:06:36;5.27;;;3.77;;
6292;SDS011;3179;54.350;10.102;2022-10-23T14:09:05;11.33;;;5.10;;
6292;SDS011;3179;54.350;10.102;2022-10-23T14:11:33;8.50;;;4.30;;
6292;SDS011;3179;54.350;10.102;2022-10-23T14:14:00;8.77;;;4.40;;
6292;SDS011;3179;54.350;10.102;2022-10-23T14:16:27;5.50;;;4.80;;
6292;SDS011;3179;54.350;10.102;2022-10-23T14:18:54;8.13;;;5.20;;
6292;SDS011;3179;54.350;10.102;2022-10-23T14:21:22;6.70;;;4.00;;
6292;SDS011;3179;54.350;10.102;2022-10-23T14:23:50;8.90;;;4.63;;
6292;SDS011;3179;54.350;10.102;2022-10-23T14:26:20;5.37;;;3.60;;
6292;SDS011;3179;54.350;10.102;2022-10-23T14:28:50;6.93;;;4.47;;
6292;SDS011;3179;54.350;10.102;2022-10-23T14:31:18;7.60;;;4.47;;
6292;SDS011;3179;54.350;10.102;2022-10-23T14:33:45;7.10;;;4.77;;
6292;SDS011;3179;54.350;10.102;2022-10-23T14:36:16;6.93;;;4.60;;
6292;SDS011;3179;54.350;10.102;2022-10-23T14:38:42;7.67;;;5.00;;
6292;SDS011;3179;54.350;10.102;2022-10-23T14:41:10;8.57;;;4.93;;
6292;SDS011;3179;54.350;10.102;2022-10-23T14:43:39;9.30;;;5.07;;
6292;SDS011;3179;54.350;10.102;2022-10-23T14:46:07;8.27;;;5.00;;
6292;SDS011;3179;54.350;10.102;2022-10-23T14:48:36;4.77;;;3.80;;
6292;SDS011;3179;54.350;10.102;2022-10-23T14:51:03;7.10;;;4.70;;
6292;SDS011;3179;54.350;10.102;2022-10-23T14:53:34;5.70;;;4.50;;
6292;SDS011;3179;54.350;10.102;2022-10-23T14:56:02;6.50;;;3.70;;
6292;SDS011;3179;54.350;10.102;2022-10-23T14:58:29;8.53;;;4.23;;
6292;SDS011;3179;54.350;10.102;2022-10-23T15:00:58;13.03;;;4.80;;
6292;SDS011;3179;54.350;10.102;2022-10-23T15:03:25;9.20;;;4.23;;
6292;SDS011;3179;54.350;10.102;2022-10-23T15:05:52;15.63;;;6.27;;
6292;SDS011;3179;54.350;10.102;2022-10-23T15:08:20;11.23;;;6.43;;
6292;SDS011;3179;54.350;10.102;2022-10-23T15:10:47;8.63;;;4.87;;
6292;SDS011;3179;54.350;10.102;2022-10-23T15:13:14;7.03;;;4.50;;
6292;SDS011;3179;54.350;10.102;2022-10-23T15:15:41;13.43;;;4.87;;
6292;SDS011;3179;54.350;10.102;2022-10-23T15:18:09;9.87;;;4.70;;
6292;SDS011;3179;54.350;10.102;2022-10-23T15:20:36;8.33;;;4.30;;
6292;SDS011;3179;54.350;10.102;2022-10-23T15:23:03;8.63;;;4.73;;
6292;SDS011;3179;54.350;10.102;2022-10-23T15:25:30;7.03;;;4.60;;
6292;SDS011;3179;54.350;10.102;2022-10-23T15:27:57;8.93;;;4.73;;
6292;SDS011;3179;54.350;10.102;2022-10-23T15:30:23;8.93;;;5.20;;
6292;SDS011;3179;54.350;10.102;2022-10-23T15:32:50;6.10;;;4.23;;
6292;SDS011;3179;54.350;10.102;2022-10-23T15:35:24;6.77;;;4.77;;
6292;SDS011;3179;54.350;10.102;2022-10-23T15:37:51;9.10;;;4.20;;